SLAYR40 KNIP-KCHS
Flight info
| Callsign | SLAYR40 |
|---|---|
| Flight time | 1h 23m |
| Altitude | 4000 |
| Route | SSI WISPR SAV BAGGY3 |
| Aircraft | H60/L-VD/C |
Departure
| Time | 2026-05-09 05:09 |
|---|---|
| Airport | Jacksonville Naval Air Station (Towers Field) (KNIP) |
Arrival
| Time | 2026-05-09 06:33 |
|---|---|
| Airport | Charleston International Airport (KCHS) |
| Time | Latitude | Longitude | Altitude | Speed | Heading |
|---|---|---|---|---|---|
| 2026-05-09 05:01 | 30.22939 | -81.67993 | 54 ft | 0 kts | 288° |
| 2026-05-09 05:08 | 30.22939 | -81.67996 | 58 ft | 2 kts | 285° |
| 2026-05-09 05:08 | 30.22949 | -81.68007 | 30 ft | 4 kts | 340° |
| 2026-05-09 05:08 | 30.23017 | -81.68013 | 49 ft | 20 kts | 359° |
| 2026-05-09 05:08 | 30.23188 | -81.68021 | 146 ft | 32 kts | 346° |
| 2026-05-09 05:09 | 30.23552 | -81.68024 | 355 ft | 81 kts | 358° |
| 2026-05-09 05:09 | 30.24275 | -81.67967 | 446 ft | 123 kts | 7° |
| 2026-05-09 05:09 | 30.25186 | -81.67835 | 566 ft | 137 kts | 10° |
| 2026-05-09 05:09 | 30.26097 | -81.67673 | 788 ft | 138 kts | 11° |
| 2026-05-09 05:10 | 30.27039 | -81.67483 | 1048 ft | 137 kts | 12° |
| 2026-05-09 05:10 | 30.27978 | -81.67271 | 1311 ft | 138 kts | 13° |
| 2026-05-09 05:10 | 30.28920 | -81.67039 | 1541 ft | 139 kts | 15° |
| 2026-05-09 05:10 | 30.29868 | -81.66790 | 1758 ft | 140 kts | 15° |
| 2026-05-09 05:11 | 30.30817 | -81.66529 | 2004 ft | 139 kts | 16° |
| 2026-05-09 05:11 | 30.31759 | -81.66257 | 2236 ft | 140 kts | 17° |
| 2026-05-09 05:11 | 30.32705 | -81.65979 | 2444 ft | 141 kts | 16° |
| 2026-05-09 05:11 | 30.33670 | -81.65752 | 2632 ft | 141 kts | 12° |
| 2026-05-09 05:12 | 30.34631 | -81.65547 | 2826 ft | 140 kts | 12° |
| 2026-05-09 05:12 | 30.35586 | -81.65332 | 3005 ft | 140 kts | 13° |
| 2026-05-09 05:12 | 30.36534 | -81.65107 | 3319 ft | 138 kts | 13° |
| 2026-05-09 05:12 | 30.37461 | -81.64869 | 3694 ft | 135 kts | 13° |
| 2026-05-09 05:13 | 30.38371 | -81.64609 | 4013 ft | 135 kts | 14° |
| 2026-05-09 05:13 | 30.39274 | -81.64341 | 4000 ft | 133 kts | 14° |
| 2026-05-09 05:13 | 30.40176 | -81.64071 | 3994 ft | 133 kts | 14° |
| 2026-05-09 05:13 | 30.41081 | -81.63798 | 4001 ft | 136 kts | 14° |
| 2026-05-09 05:14 | 30.41987 | -81.63529 | 4006 ft | 135 kts | 14° |
| 2026-05-09 05:14 | 30.42896 | -81.63264 | 4010 ft | 135 kts | 14° |
| 2026-05-09 05:14 | 30.43809 | -81.63017 | 4014 ft | 135 kts | 14° |
| 2026-05-09 05:14 | 30.44728 | -81.62766 | 4014 ft | 134 kts | 14° |
| 2026-05-09 05:15 | 30.45640 | -81.62517 | 4014 ft | 134 kts | 14° |
| 2026-05-09 05:15 | 30.46554 | -81.62268 | 4015 ft | 135 kts | 14° |
| 2026-05-09 05:15 | 30.47468 | -81.62019 | 4013 ft | 136 kts | 14° |
| 2026-05-09 05:15 | 30.48387 | -81.61769 | 4016 ft | 135 kts | 14° |
| 2026-05-09 05:16 | 30.49287 | -81.61525 | 4014 ft | 135 kts | 14° |
| 2026-05-09 05:16 | 30.50200 | -81.61279 | 4014 ft | 135 kts | 14° |
| 2026-05-09 05:16 | 30.51115 | -81.61031 | 4012 ft | 136 kts | 14° |
| 2026-05-09 05:16 | 30.52031 | -81.60782 | 4014 ft | 136 kts | 14° |
| 2026-05-09 05:17 | 30.52948 | -81.60536 | 4013 ft | 134 kts | 14° |
| 2026-05-09 05:17 | 30.53565 | -81.60370 | 4012 ft | 136 kts | 14° |
| 2026-05-09 05:17 | 30.54481 | -81.60123 | 4013 ft | 136 kts | 14° |
| 2026-05-09 05:17 | 30.55395 | -81.59875 | 4017 ft | 134 kts | 14° |
| 2026-05-09 05:18 | 30.56308 | -81.59628 | 4016 ft | 135 kts | 14° |
| 2026-05-09 05:18 | 30.57224 | -81.59386 | 4017 ft | 135 kts | 14° |
| 2026-05-09 05:18 | 30.58130 | -81.59146 | 4017 ft | 136 kts | 14° |
| 2026-05-09 05:18 | 30.59047 | -81.58905 | 4015 ft | 136 kts | 14° |
| 2026-05-09 05:19 | 30.59964 | -81.58664 | 4015 ft | 135 kts | 14° |
| 2026-05-09 05:19 | 30.60879 | -81.58424 | 4015 ft | 135 kts | 14° |
| 2026-05-09 05:19 | 30.61800 | -81.58179 | 4016 ft | 136 kts | 14° |
| 2026-05-09 05:19 | 30.62717 | -81.57937 | 4015 ft | 135 kts | 14° |
| 2026-05-09 05:20 | 30.63634 | -81.57696 | 4018 ft | 135 kts | 14° |
| 2026-05-09 05:20 | 30.64549 | -81.57454 | 4017 ft | 135 kts | 14° |
| 2026-05-09 05:20 | 30.65467 | -81.57210 | 4017 ft | 136 kts | 14° |
| 2026-05-09 05:20 | 30.66382 | -81.56969 | 4017 ft | 135 kts | 14° |
| 2026-05-09 05:21 | 30.67298 | -81.56724 | 4018 ft | 136 kts | 14° |
| 2026-05-09 05:21 | 30.68213 | -81.56469 | 4016 ft | 136 kts | 15° |
| 2026-05-09 05:21 | 30.69119 | -81.56200 | 4030 ft | 135 kts | 15° |
| 2026-05-09 05:21 | 30.70022 | -81.55919 | 4032 ft | 134 kts | 15° |
| 2026-05-09 05:22 | 30.70922 | -81.55630 | 4031 ft | 134 kts | 16° |
| 2026-05-09 05:22 | 30.71820 | -81.55329 | 4031 ft | 134 kts | 17° |
| 2026-05-09 05:22 | 30.72716 | -81.55018 | 4031 ft | 134 kts | 17° |
| 2026-05-09 05:22 | 30.73618 | -81.54703 | 4029 ft | 137 kts | 17° |
| 2026-05-09 05:23 | 30.74504 | -81.54395 | 4028 ft | 134 kts | 18° |
| 2026-05-09 05:23 | 30.75397 | -81.54073 | 4031 ft | 135 kts | 18° |
| 2026-05-09 05:23 | 30.76288 | -81.53743 | 4032 ft | 135 kts | 18° |
| 2026-05-09 05:23 | 30.77177 | -81.53404 | 4028 ft | 135 kts | 19° |
| 2026-05-09 05:24 | 30.78064 | -81.53053 | 4028 ft | 135 kts | 19° |
| 2026-05-09 05:24 | 30.78949 | -81.52692 | 4031 ft | 135 kts | 20° |
| 2026-05-09 05:24 | 30.79833 | -81.52324 | 4023 ft | 136 kts | 17° |
| 2026-05-09 05:24 | 30.80735 | -81.52029 | 4033 ft | 133 kts | 14° |
| 2026-05-09 05:25 | 30.81634 | -81.51737 | 4032 ft | 134 kts | 14° |
| 2026-05-09 05:25 | 30.82535 | -81.51446 | 4026 ft | 134 kts | 14° |
| 2026-05-09 05:25 | 30.84326 | -81.50868 | 4020 ft | 135 kts | 14° |
| 2026-05-09 05:26 | 30.85240 | -81.50572 | 4016 ft | 135 kts | 14° |
| 2026-05-09 05:26 | 30.86128 | -81.50286 | 4014 ft | 135 kts | 14° |
| 2026-05-09 05:26 | 30.87029 | -81.49993 | 4015 ft | 134 kts | 14° |
| 2026-05-09 05:26 | 30.87920 | -81.49708 | 4021 ft | 126 kts | 14° |
| 2026-05-09 05:27 | 30.88723 | -81.49482 | 4019 ft | 124 kts | 7° |
| 2026-05-09 05:27 | 30.89641 | -81.49310 | 4023 ft | 131 kts | 7° |
| 2026-05-09 05:27 | 30.90560 | -81.49139 | 4018 ft | 134 kts | 7° |
| 2026-05-09 05:27 | 30.91480 | -81.48969 | 4013 ft | 134 kts | 7° |
| 2026-05-09 05:28 | 30.92400 | -81.48800 | 4010 ft | 134 kts | 7° |
| 2026-05-09 05:28 | 30.93320 | -81.48630 | 4009 ft | 134 kts | 7° |
| 2026-05-09 05:28 | 30.94241 | -81.48459 | 3993 ft | 134 kts | 7° |
| 2026-05-09 05:28 | 30.95161 | -81.48289 | 3992 ft | 134 kts | 7° |
| 2026-05-09 05:29 | 30.96084 | -81.48119 | 3992 ft | 134 kts | 7° |
| 2026-05-09 05:29 | 30.97003 | -81.47938 | 3988 ft | 134 kts | 7° |
| 2026-05-09 05:29 | 30.97921 | -81.47752 | 3991 ft | 134 kts | 7° |
| 2026-05-09 05:29 | 30.98839 | -81.47567 | 3988 ft | 134 kts | 7° |
| 2026-05-09 05:30 | 30.99758 | -81.47384 | 3995 ft | 134 kts | 7° |
| 2026-05-09 05:30 | 31.00678 | -81.47200 | 3988 ft | 134 kts | 7° |
| 2026-05-09 05:30 | 31.01598 | -81.47018 | 3989 ft | 134 kts | 7° |
| 2026-05-09 05:30 | 31.02515 | -81.46834 | 3984 ft | 134 kts | 7° |
| 2026-05-09 05:31 | 31.03434 | -81.46659 | 3983 ft | 134 kts | 7° |
| 2026-05-09 05:31 | 31.04356 | -81.46490 | 3981 ft | 134 kts | 7° |
| 2026-05-09 05:31 | 31.05278 | -81.46324 | 3977 ft | 134 kts | 7° |
| 2026-05-09 05:31 | 31.06200 | -81.46156 | 3978 ft | 133 kts | 7° |
| 2026-05-09 05:32 | 31.07122 | -81.45989 | 3978 ft | 134 kts | 7° |
| 2026-05-09 05:32 | 31.08031 | -81.45828 | 3977 ft | 134 kts | 7° |
| 2026-05-09 05:32 | 31.08952 | -81.45665 | 3980 ft | 134 kts | 7° |
| 2026-05-09 05:32 | 31.09874 | -81.45504 | 3976 ft | 134 kts | 7° |
| 2026-05-09 05:33 | 31.10793 | -81.45340 | 3978 ft | 133 kts | 7° |
| 2026-05-09 05:33 | 31.11716 | -81.45174 | 3976 ft | 135 kts | 7° |
| 2026-05-09 05:33 | 31.12627 | -81.44925 | 3986 ft | 132 kts | 14° |
| 2026-05-09 05:33 | 31.13537 | -81.44687 | 3981 ft | 134 kts | 11° |
| 2026-05-09 05:34 | 31.14451 | -81.44462 | 3977 ft | 134 kts | 12° |
| 2026-05-09 05:34 | 31.15361 | -81.44224 | 3977 ft | 134 kts | 13° |
| 2026-05-09 05:34 | 31.16271 | -81.43972 | 3975 ft | 134 kts | 13° |
| 2026-05-09 05:34 | 31.17181 | -81.43710 | 3973 ft | 134 kts | 13° |
| 2026-05-09 05:35 | 31.18090 | -81.43449 | 3975 ft | 136 kts | 13° |
| 2026-05-09 05:35 | 31.19000 | -81.43187 | 3978 ft | 134 kts | 13° |
| 2026-05-09 05:35 | 31.19910 | -81.42925 | 3977 ft | 135 kts | 13° |
| 2026-05-09 05:35 | 31.20821 | -81.42665 | 3996 ft | 134 kts | 13° |
| 2026-05-09 05:36 | 31.21729 | -81.42405 | 3993 ft | 134 kts | 13° |
| 2026-05-09 05:36 | 31.22639 | -81.42146 | 3996 ft | 134 kts | 13° |
| 2026-05-09 05:36 | 31.23548 | -81.41886 | 4003 ft | 134 kts | 13° |
| 2026-05-09 05:36 | 31.24453 | -81.41607 | 4000 ft | 135 kts | 13° |
| 2026-05-09 05:37 | 31.25357 | -81.41326 | 3996 ft | 134 kts | 13° |
| 2026-05-09 05:37 | 31.26259 | -81.41044 | 3995 ft | 135 kts | 13° |
| 2026-05-09 05:37 | 31.27160 | -81.40762 | 3996 ft | 135 kts | 13° |
| 2026-05-09 05:37 | 31.28068 | -81.40479 | 3995 ft | 135 kts | 13° |
| 2026-05-09 05:38 | 31.28971 | -81.40197 | 3998 ft | 135 kts | 13° |
| 2026-05-09 05:38 | 31.29876 | -81.39913 | 3998 ft | 135 kts | 13° |
| 2026-05-09 05:38 | 31.30778 | -81.39626 | 3996 ft | 135 kts | 13° |
| 2026-05-09 05:38 | 31.31681 | -81.39330 | 3994 ft | 136 kts | 12° |
| 2026-05-09 05:39 | 31.32580 | -81.39064 | 3994 ft | 134 kts | 12° |
| 2026-05-09 05:39 | 31.33475 | -81.38797 | 3995 ft | 134 kts | 12° |
| 2026-05-09 05:39 | 31.34379 | -81.38528 | 3995 ft | 135 kts | 12° |
| 2026-05-09 05:39 | 31.35298 | -81.38259 | 3995 ft | 135 kts | 12° |
| 2026-05-09 05:40 | 31.36205 | -81.37998 | 3995 ft | 134 kts | 12° |
| 2026-05-09 05:40 | 31.37103 | -81.37740 | 3995 ft | 134 kts | 12° |
| 2026-05-09 05:40 | 31.38011 | -81.37478 | 3996 ft | 134 kts | 12° |
| 2026-05-09 05:40 | 31.38919 | -81.37214 | 3996 ft | 134 kts | 12° |
| 2026-05-09 05:41 | 31.39829 | -81.36948 | 3996 ft | 135 kts | 12° |
| 2026-05-09 05:41 | 31.40742 | -81.36702 | 3992 ft | 132 kts | 9° |
| 2026-05-09 05:41 | 31.41649 | -81.36472 | 3992 ft | 136 kts | 9° |
| 2026-05-09 05:41 | 31.42583 | -81.36228 | 3997 ft | 139 kts | 9° |
| 2026-05-09 05:42 | 31.43500 | -81.35975 | 4006 ft | 134 kts | 11° |
| 2026-05-09 05:42 | 31.44407 | -81.35722 | 4001 ft | 134 kts | 11° |
| 2026-05-09 05:42 | 31.45314 | -81.35470 | 4000 ft | 134 kts | 11° |
| 2026-05-09 05:42 | 31.46220 | -81.35214 | 3997 ft | 134 kts | 11° |
| 2026-05-09 05:43 | 31.47130 | -81.34958 | 3995 ft | 135 kts | 11° |
| 2026-05-09 05:43 | 31.48038 | -81.34702 | 3995 ft | 135 kts | 11° |
| 2026-05-09 05:43 | 31.48947 | -81.34444 | 3996 ft | 134 kts | 11° |
| 2026-05-09 05:43 | 31.49857 | -81.34189 | 3994 ft | 134 kts | 11° |
| 2026-05-09 05:44 | 31.50767 | -81.33926 | 3997 ft | 138 kts | 11° |
| 2026-05-09 05:44 | 31.51694 | -81.33625 | 3993 ft | 139 kts | 11° |
| 2026-05-09 05:44 | 31.52624 | -81.33321 | 3991 ft | 138 kts | 11° |
| 2026-05-09 05:44 | 31.53553 | -81.33022 | 3991 ft | 138 kts | 11° |
| 2026-05-09 05:45 | 31.54482 | -81.32723 | 3993 ft | 138 kts | 11° |
| 2026-05-09 05:45 | 31.55410 | -81.32423 | 3991 ft | 139 kts | 11° |
| 2026-05-09 05:45 | 31.56338 | -81.32127 | 3985 ft | 134 kts | 11° |
| 2026-05-09 05:45 | 31.57208 | -81.31842 | 3982 ft | 127 kts | 11° |
| 2026-05-09 05:46 | 31.58127 | -81.31544 | 3985 ft | 136 kts | 11° |
| 2026-05-09 05:46 | 31.59048 | -81.31246 | 3982 ft | 139 kts | 11° |
| 2026-05-09 05:46 | 31.59974 | -81.30944 | 3981 ft | 139 kts | 11° |
| 2026-05-09 05:46 | 31.60902 | -81.30644 | 3978 ft | 138 kts | 11° |
| 2026-05-09 05:47 | 31.61832 | -81.30345 | 3979 ft | 138 kts | 11° |
| 2026-05-09 05:47 | 31.62762 | -81.30047 | 3979 ft | 139 kts | 11° |
| 2026-05-09 05:47 | 31.63692 | -81.29749 | 3980 ft | 139 kts | 11° |
| 2026-05-09 05:47 | 31.64623 | -81.29455 | 3977 ft | 138 kts | 11° |
| 2026-05-09 05:48 | 31.65539 | -81.29161 | 3978 ft | 138 kts | 11° |
| 2026-05-09 05:48 | 31.66480 | -81.28856 | 3980 ft | 138 kts | 11° |
| 2026-05-09 05:48 | 31.67410 | -81.28555 | 3977 ft | 138 kts | 11° |
| 2026-05-09 05:48 | 31.68322 | -81.28257 | 3973 ft | 138 kts | 11° |
| 2026-05-09 05:49 | 31.69244 | -81.27969 | 3970 ft | 137 kts | 11° |
| 2026-05-09 05:49 | 31.70170 | -81.27680 | 3972 ft | 137 kts | 11° |
| 2026-05-09 05:49 | 31.71090 | -81.27393 | 3980 ft | 137 kts | 11° |
| 2026-05-09 05:49 | 31.72017 | -81.27108 | 3976 ft | 137 kts | 11° |
| 2026-05-09 05:50 | 31.72936 | -81.26819 | 3978 ft | 137 kts | 11° |
| 2026-05-09 05:50 | 31.73858 | -81.26533 | 3974 ft | 136 kts | 11° |
| 2026-05-09 05:50 | 31.74778 | -81.26245 | 3974 ft | 137 kts | 11° |
| 2026-05-09 05:50 | 31.75698 | -81.25960 | 3973 ft | 137 kts | 11° |
| 2026-05-09 05:51 | 31.76620 | -81.25669 | 3973 ft | 137 kts | 11° |
| 2026-05-09 05:51 | 31.77543 | -81.25381 | 3974 ft | 140 kts | 11° |
| 2026-05-09 05:51 | 31.78491 | -81.25071 | 3972 ft | 142 kts | 11° |
| 2026-05-09 05:51 | 31.79436 | -81.24762 | 3967 ft | 141 kts | 11° |
| 2026-05-09 05:52 | 31.80382 | -81.24457 | 3968 ft | 142 kts | 11° |
| 2026-05-09 05:52 | 31.81339 | -81.24150 | 3969 ft | 143 kts | 11° |
| 2026-05-09 05:52 | 31.82289 | -81.23839 | 3968 ft | 142 kts | 11° |
| 2026-05-09 05:52 | 31.83239 | -81.23530 | 3968 ft | 143 kts | 11° |
| 2026-05-09 05:53 | 31.84193 | -81.23219 | 3971 ft | 142 kts | 11° |
| 2026-05-09 05:53 | 31.85144 | -81.22909 | 3969 ft | 142 kts | 11° |
| 2026-05-09 05:53 | 31.86084 | -81.22604 | 3968 ft | 142 kts | 11° |
| 2026-05-09 05:53 | 31.87031 | -81.22296 | 3968 ft | 141 kts | 11° |
| 2026-05-09 05:54 | 31.87996 | -81.21985 | 3968 ft | 143 kts | 11° |
| 2026-05-09 05:54 | 31.88937 | -81.21684 | 3969 ft | 141 kts | 11° |
| 2026-05-09 05:54 | 31.89883 | -81.21377 | 3967 ft | 142 kts | 11° |
| 2026-05-09 05:54 | 31.90844 | -81.21071 | 3969 ft | 143 kts | 11° |
| 2026-05-09 05:55 | 31.91801 | -81.20761 | 3967 ft | 143 kts | 11° |
| 2026-05-09 05:55 | 31.92758 | -81.20450 | 3969 ft | 144 kts | 11° |
| 2026-05-09 05:55 | 31.93733 | -81.20169 | 3969 ft | 145 kts | 9° |
| 2026-05-09 05:55 | 31.94693 | -81.19894 | 3965 ft | 143 kts | 9° |
| 2026-05-09 05:56 | 31.95651 | -81.19619 | 3967 ft | 142 kts | 9° |
| 2026-05-09 05:56 | 31.96613 | -81.19343 | 3968 ft | 142 kts | 9° |
| 2026-05-09 05:56 | 31.97572 | -81.19072 | 3969 ft | 142 kts | 9° |
| 2026-05-09 05:56 | 31.98534 | -81.18791 | 3969 ft | 142 kts | 9° |
| 2026-05-09 05:57 | 31.99490 | -81.18511 | 3973 ft | 141 kts | 9° |
| 2026-05-09 05:57 | 32.00446 | -81.18237 | 3973 ft | 142 kts | 9° |
| 2026-05-09 05:57 | 32.01408 | -81.17954 | 3967 ft | 142 kts | 9° |
| 2026-05-09 05:57 | 32.02367 | -81.17675 | 3970 ft | 142 kts | 9° |
| 2026-05-09 05:58 | 32.03328 | -81.17391 | 3968 ft | 143 kts | 9° |
| 2026-05-09 05:58 | 32.04280 | -81.17101 | 3964 ft | 139 kts | 9° |
| 2026-05-09 05:58 | 32.05214 | -81.16776 | 3968 ft | 140 kts | 9° |
| 2026-05-09 05:58 | 32.06149 | -81.16451 | 3972 ft | 141 kts | 9° |
| 2026-05-09 05:59 | 32.07088 | -81.16125 | 3972 ft | 141 kts | 9° |
| 2026-05-09 05:59 | 32.08026 | -81.15798 | 4012 ft | 140 kts | 9° |
| 2026-05-09 05:59 | 32.08962 | -81.15469 | 4003 ft | 140 kts | 9° |
| 2026-05-09 05:59 | 32.09901 | -81.15138 | 4003 ft | 141 kts | 9° |
| 2026-05-09 06:00 | 32.10843 | -81.14808 | 4006 ft | 141 kts | 9° |
| 2026-05-09 06:00 | 32.11782 | -81.14480 | 4008 ft | 141 kts | 9° |
| 2026-05-09 06:00 | 32.12722 | -81.14153 | 4005 ft | 141 kts | 9° |
| 2026-05-09 06:00 | 32.13662 | -81.13826 | 4006 ft | 140 kts | 9° |
| 2026-05-09 06:01 | 32.14600 | -81.13502 | 3996 ft | 140 kts | 9° |
| 2026-05-09 06:01 | 32.15538 | -81.13177 | 4000 ft | 140 kts | 9° |
| 2026-05-09 06:01 | 32.16475 | -81.12856 | 4000 ft | 141 kts | 9° |
| 2026-05-09 06:01 | 32.17415 | -81.12537 | 3996 ft | 141 kts | 9° |
| 2026-05-09 06:02 | 32.18355 | -81.12179 | 3991 ft | 146 kts | 15° |
| 2026-05-09 06:02 | 32.19213 | -81.11501 | 3992 ft | 153 kts | 37° |
| 2026-05-09 06:02 | 32.19893 | -81.10532 | 4000 ft | 147 kts | 50° |
| 2026-05-09 06:02 | 32.20522 | -81.09548 | 4001 ft | 149 kts | 50° |
| 2026-05-09 06:03 | 32.21152 | -81.08566 | 3999 ft | 151 kts | 50° |
| 2026-05-09 06:03 | 32.21788 | -81.07576 | 3994 ft | 152 kts | 50° |
| 2026-05-09 06:03 | 32.22424 | -81.06582 | 4000 ft | 151 kts | 50° |
| 2026-05-09 06:03 | 32.23060 | -81.05587 | 3998 ft | 152 kts | 50° |
| 2026-05-09 06:04 | 32.23688 | -81.04609 | 3999 ft | 152 kts | 50° |
| 2026-05-09 06:04 | 32.24327 | -81.03616 | 3999 ft | 152 kts | 50° |
| 2026-05-09 06:04 | 32.24968 | -81.02623 | 3994 ft | 151 kts | 50° |
| 2026-05-09 06:04 | 32.25608 | -81.01633 | 4000 ft | 151 kts | 50° |
| 2026-05-09 06:05 | 32.26245 | -81.00645 | 3994 ft | 151 kts | 50° |
| 2026-05-09 06:05 | 32.26883 | -80.99658 | 3991 ft | 151 kts | 50° |
| 2026-05-09 06:05 | 32.27520 | -80.98669 | 3995 ft | 151 kts | 50° |
| 2026-05-09 06:05 | 32.28157 | -80.97680 | 3997 ft | 151 kts | 50° |
| 2026-05-09 06:06 | 32.28793 | -80.96690 | 3999 ft | 151 kts | 50° |
| 2026-05-09 06:06 | 32.29426 | -80.95703 | 3999 ft | 151 kts | 50° |
| 2026-05-09 06:06 | 32.30059 | -80.94733 | 4002 ft | 149 kts | 50° |
| 2026-05-09 06:06 | 32.30489 | -80.94078 | 3998 ft | 150 kts | 50° |
| 2026-05-09 06:07 | 32.31123 | -80.93105 | 3997 ft | 150 kts | 50° |
| 2026-05-09 06:07 | 32.31757 | -80.92135 | 4000 ft | 149 kts | 50° |
| 2026-05-09 06:07 | 32.32390 | -80.91164 | 4003 ft | 150 kts | 50° |
| 2026-05-09 06:07 | 32.33022 | -80.90194 | 4001 ft | 149 kts | 50° |
| 2026-05-09 06:08 | 32.33645 | -80.89244 | 4000 ft | 148 kts | 50° |
| 2026-05-09 06:08 | 32.34279 | -80.88278 | 3986 ft | 148 kts | 49° |
| 2026-05-09 06:08 | 32.34913 | -80.87309 | 3991 ft | 150 kts | 50° |
| 2026-05-09 06:08 | 32.35546 | -80.86343 | 3994 ft | 148 kts | 50° |
| 2026-05-09 06:09 | 32.36178 | -80.85378 | 3993 ft | 149 kts | 49° |
| 2026-05-09 06:09 | 32.36815 | -80.84413 | 3996 ft | 149 kts | 49° |
| 2026-05-09 06:09 | 32.37450 | -80.83446 | 3996 ft | 149 kts | 50° |
| 2026-05-09 06:09 | 32.38085 | -80.82478 | 3991 ft | 150 kts | 50° |
| 2026-05-09 06:10 | 32.38718 | -80.81510 | 3993 ft | 149 kts | 49° |
| 2026-05-09 06:10 | 32.39352 | -80.80541 | 3998 ft | 149 kts | 49° |
| 2026-05-09 06:10 | 32.39983 | -80.79578 | 3994 ft | 148 kts | 49° |
| 2026-05-09 06:10 | 32.40616 | -80.78610 | 3996 ft | 149 kts | 49° |
| 2026-05-09 06:11 | 32.41250 | -80.77638 | 4002 ft | 149 kts | 49° |
| 2026-05-09 06:11 | 32.41882 | -80.76673 | 3991 ft | 149 kts | 49° |
| 2026-05-09 06:11 | 32.42516 | -80.75707 | 3995 ft | 148 kts | 49° |
| 2026-05-09 06:11 | 32.43152 | -80.74745 | 3991 ft | 148 kts | 49° |
| 2026-05-09 06:12 | 32.43786 | -80.73781 | 3999 ft | 148 kts | 49° |
| 2026-05-09 06:12 | 32.44415 | -80.72832 | 3991 ft | 148 kts | 49° |
| 2026-05-09 06:12 | 32.45057 | -80.71858 | 4001 ft | 148 kts | 49° |
| 2026-05-09 06:12 | 32.45691 | -80.70894 | 3995 ft | 149 kts | 49° |
| 2026-05-09 06:13 | 32.46328 | -80.69928 | 3991 ft | 148 kts | 49° |
| 2026-05-09 06:13 | 32.46964 | -80.68965 | 3992 ft | 148 kts | 49° |
| 2026-05-09 06:13 | 32.47598 | -80.68002 | 3996 ft | 149 kts | 49° |
| 2026-05-09 06:13 | 32.48232 | -80.67035 | 3997 ft | 149 kts | 49° |
| 2026-05-09 06:14 | 32.48868 | -80.66071 | 3996 ft | 148 kts | 49° |
| 2026-05-09 06:14 | 32.49505 | -80.65107 | 3996 ft | 149 kts | 49° |
| 2026-05-09 06:14 | 32.50143 | -80.64142 | 3995 ft | 149 kts | 49° |
| 2026-05-09 06:14 | 32.50772 | -80.63194 | 3991 ft | 147 kts | 49° |
| 2026-05-09 06:15 | 32.51415 | -80.62222 | 4004 ft | 148 kts | 49° |
| 2026-05-09 06:15 | 32.52041 | -80.61267 | 4006 ft | 150 kts | 49° |
| 2026-05-09 06:15 | 32.52680 | -80.60301 | 4008 ft | 148 kts | 49° |
| 2026-05-09 06:15 | 32.53314 | -80.59337 | 4006 ft | 148 kts | 49° |
| 2026-05-09 06:16 | 32.53949 | -80.58385 | 3998 ft | 146 kts | 49° |
| 2026-05-09 06:16 | 32.54585 | -80.57447 | 4003 ft | 146 kts | 49° |
| 2026-05-09 06:16 | 32.55220 | -80.56508 | 4003 ft | 146 kts | 49° |
| 2026-05-09 06:16 | 32.55857 | -80.55568 | 4003 ft | 147 kts | 49° |
| 2026-05-09 06:17 | 32.56494 | -80.54629 | 4003 ft | 146 kts | 49° |
| 2026-05-09 06:17 | 32.57131 | -80.53688 | 4001 ft | 146 kts | 49° |
| 2026-05-09 06:17 | 32.57771 | -80.52747 | 4004 ft | 147 kts | 49° |
| 2026-05-09 06:17 | 32.58412 | -80.51807 | 3999 ft | 147 kts | 49° |
| 2026-05-09 06:18 | 32.59051 | -80.50864 | 4008 ft | 147 kts | 49° |
| 2026-05-09 06:18 | 32.59691 | -80.49924 | 4009 ft | 147 kts | 49° |
| 2026-05-09 06:18 | 32.60330 | -80.48983 | 4007 ft | 147 kts | 49° |
| 2026-05-09 06:18 | 32.60972 | -80.48042 | 4007 ft | 147 kts | 49° |
| 2026-05-09 06:19 | 32.61612 | -80.47102 | 4004 ft | 147 kts | 49° |
| 2026-05-09 06:19 | 32.62250 | -80.46163 | 4005 ft | 146 kts | 49° |
| 2026-05-09 06:19 | 32.62888 | -80.45224 | 4005 ft | 146 kts | 49° |
| 2026-05-09 06:19 | 32.63528 | -80.44284 | 4005 ft | 146 kts | 49° |
| 2026-05-09 06:20 | 32.64169 | -80.43347 | 4005 ft | 146 kts | 49° |
| 2026-05-09 06:20 | 32.64811 | -80.42407 | 4002 ft | 147 kts | 49° |
| 2026-05-09 06:20 | 32.65453 | -80.41469 | 4002 ft | 146 kts | 49° |
| 2026-05-09 06:20 | 32.66094 | -80.40531 | 4003 ft | 147 kts | 49° |
| 2026-05-09 06:21 | 32.66735 | -80.39593 | 4008 ft | 146 kts | 49° |
| 2026-05-09 06:21 | 32.67377 | -80.38656 | 4004 ft | 146 kts | 49° |
| 2026-05-09 06:21 | 32.68017 | -80.37720 | 4001 ft | 147 kts | 49° |
| 2026-05-09 06:21 | 32.68659 | -80.36779 | 4009 ft | 146 kts | 49° |
| 2026-05-09 06:22 | 32.69299 | -80.35843 | 4011 ft | 146 kts | 49° |
| 2026-05-09 06:22 | 32.69942 | -80.34906 | 4008 ft | 147 kts | 49° |
| 2026-05-09 06:22 | 32.70586 | -80.33968 | 4009 ft | 146 kts | 49° |
| 2026-05-09 06:22 | 32.71230 | -80.33029 | 4008 ft | 147 kts | 49° |
| 2026-05-09 06:23 | 32.71874 | -80.32089 | 4008 ft | 146 kts | 49° |
| 2026-05-09 06:23 | 32.72515 | -80.31149 | 4009 ft | 147 kts | 49° |
| 2026-05-09 06:23 | 32.73175 | -80.30225 | 3996 ft | 149 kts | 44° |
| 2026-05-09 06:23 | 32.74088 | -80.29559 | 3997 ft | 158 kts | 18° |
| 2026-05-09 06:24 | 32.75040 | -80.29130 | 4022 ft | 135 kts | 16° |
| 2026-05-09 06:24 | 32.75944 | -80.28705 | 4011 ft | 139 kts | 16° |
| 2026-05-09 06:24 | 32.76851 | -80.28279 | 3997 ft | 141 kts | 16° |
| 2026-05-09 06:24 | 32.77760 | -80.27855 | 4005 ft | 140 kts | 16° |
| 2026-05-09 06:25 | 32.78641 | -80.27391 | 4000 ft | 139 kts | 28° |
| 2026-05-09 06:25 | 32.79515 | -80.26860 | 4002 ft | 142 kts | 22° |
| 2026-05-09 06:25 | 32.80375 | -80.26362 | 4001 ft | 140 kts | 22° |
| 2026-05-09 06:25 | 32.81253 | -80.25863 | 3999 ft | 141 kts | 22° |
| 2026-05-09 06:26 | 32.82131 | -80.25371 | 4000 ft | 139 kts | 22° |
| 2026-05-09 06:26 | 32.83006 | -80.24873 | 3996 ft | 139 kts | 22° |
| 2026-05-09 06:26 | 32.83886 | -80.24390 | 4002 ft | 139 kts | 22° |
| 2026-05-09 06:26 | 32.84781 | -80.23902 | 4001 ft | 140 kts | 22° |
| 2026-05-09 06:27 | 32.85649 | -80.23416 | 4012 ft | 139 kts | 23° |
| 2026-05-09 06:27 | 32.86531 | -80.22854 | 3842 ft | 144 kts | 27° |
| 2026-05-09 06:27 | 32.87399 | -80.22235 | 3652 ft | 145 kts | 31° |
| 2026-05-09 06:27 | 32.88221 | -80.21582 | 3521 ft | 143 kts | 34° |
| 2026-05-09 06:28 | 32.89015 | -80.20876 | 3433 ft | 141 kts | 37° |
| 2026-05-09 06:28 | 32.89758 | -80.20129 | 3348 ft | 139 kts | 41° |
| 2026-05-09 06:28 | 32.90456 | -80.19334 | 3162 ft | 137 kts | 46° |
| 2026-05-09 06:28 | 32.91110 | -80.18521 | 3006 ft | 135 kts | 49° |
| 2026-05-09 06:29 | 32.91757 | -80.17718 | 2837 ft | 132 kts | 49° |
| 2026-05-09 06:29 | 32.92373 | -80.16962 | 2829 ft | 122 kts | 49° |
| 2026-05-09 06:29 | 32.92941 | -80.16277 | 2955 ft | 111 kts | 50° |
| 2026-05-09 06:29 | 32.93469 | -80.15646 | 3045 ft | 106 kts | 50° |
| 2026-05-09 06:30 | 32.94006 | -80.14999 | 2823 ft | 113 kts | 51° |
| 2026-05-09 06:30 | 32.94571 | -80.14325 | 2588 ft | 117 kts | 52° |
| 2026-05-09 06:30 | 32.95099 | -80.13580 | 2419 ft | 123 kts | 63° |
| 2026-05-09 06:30 | 32.95343 | -80.12541 | 2000 ft | 139 kts | 92° |
| 2026-05-09 06:31 | 32.95312 | -80.11400 | 1955 ft | 135 kts | 106° |
| 2026-05-09 06:31 | 32.95238 | -80.10312 | 1834 ft | 132 kts | 103° |
| 2026-05-09 06:31 | 32.95063 | -80.09217 | 1403 ft | 137 kts | 111° |
| 2026-05-09 06:31 | 32.94706 | -80.08192 | 1206 ft | 128 kts | 123° |
| 2026-05-09 06:32 | 32.94195 | -80.07382 | 1050 ft | 118 kts | 136° |
| 2026-05-09 06:32 | 32.93661 | -80.06775 | 944 ft | 97 kts | 142° |
| 2026-05-09 06:32 | 32.93162 | -80.06294 | 836 ft | 92 kts | 146° |
| 2026-05-09 06:33 | 32.92174 | -80.05460 | 463 ft | 82 kts | 149° |
| 2026-05-09 06:33 | 32.91764 | -80.05161 | 323 ft | 54 kts | 147° |
| 2026-05-09 06:33 | 32.91489 | -80.04974 | 171 ft | 35 kts | 143° |
| 2026-05-09 06:34 | 32.91267 | -80.04913 | 91 ft | 15 kts | 210° |
| 2026-05-09 06:34 | 32.91213 | -80.04963 | 67 ft | 11 kts | 203° |
| 2026-05-09 06:34 | 32.91157 | -80.04989 | 76 ft | 9 kts | 163° |
| 2026-05-09 06:34 | 32.91111 | -80.04968 | 66 ft | 6 kts | 147° |
| 2026-05-09 06:35 | 32.91065 | -80.04941 | 69 ft | 8 kts | 144° |
| 2026-05-09 06:35 | 32.91023 | -80.04906 | 69 ft | 8 kts | 144° |
| 2026-05-09 06:35 | 32.90973 | -80.04861 | 70 ft | 12 kts | 144° |
| 2026-05-09 06:35 | 32.90917 | -80.04812 | 69 ft | 13 kts | 144° |
| 2026-05-09 06:36 | 32.90808 | -80.04734 | 69 ft | 18 kts | 144° |
| 2026-05-09 06:36 | 32.90746 | -80.04691 | 62 ft | 14 kts | 144° |
| 2026-05-09 06:36 | 32.90657 | -80.04631 | 64 ft | 16 kts | 144° |
| 2026-05-09 06:36 | 32.90590 | -80.04600 | 60 ft | 5 kts | 144° |
| 2026-05-09 06:37 | 32.90560 | -80.04630 | 66 ft | 7 kts | 144° |
| 2026-05-09 06:37 | 32.90531 | -80.04675 | 63 ft | 6 kts | 173° |
| 2026-05-09 06:37 | 32.90519 | -80.04685 | 59 ft | 2 kts | 240° |
| 2026-05-09 06:37 | 32.90507 | -80.04675 | 64 ft | 1 kts | 239° |
| 2026-05-09 06:38 | 32.90501 | -80.04671 | 56 ft | 1 kts | 237° |
| 2026-05-09 06:38 | 32.90503 | -80.04670 | 47 ft | 0 kts | 239° |